sensor_id;sensor_type;location;lat;lon;timestamp;temperature;humidity
62809;DHT22;48848;39.002;-94.584;2023-07-20T00:01:14;20.60;50.20
62809;DHT22;48848;39.002;-94.584;2023-07-20T00:03:40;20.60;50.50
62809;DHT22;48848;39.002;-94.584;2023-07-20T00:06:06;20.60;50.10
62809;DHT22;48848;39.002;-94.584;2023-07-20T00:08:32;20.50;49.80
62809;DHT22;48848;39.002;-94.584;2023-07-20T00:10:57;20.50;49.80
62809;DHT22;48848;39.002;-94.584;2023-07-20T00:13:24;20.50;50.40
62809;DHT22;48848;39.002;-94.584;2023-07-20T00:15:50;20.50;50.10
62809;DHT22;48848;39.002;-94.584;2023-07-20T00:18:16;20.40;50.50
62809;DHT22;48848;39.002;-94.584;2023-07-20T00:20:42;20.50;50.10
62809;DHT22;48848;39.002;-94.584;2023-07-20T00:23:08;20.40;49.90
62809;DHT22;48848;39.002;-94.584;2023-07-20T00:25:34;20.40;49.80
62809;DHT22;48848;39.002;-94.584;2023-07-20T00:28:01;20.40;49.80
62809;DHT22;48848;39.002;-94.584;2023-07-20T00:30:26;20.40;49.70
62809;DHT22;48848;39.002;-94.584;2023-07-20T00:32:52;20.40;49.80
62809;DHT22;48848;39.002;-94.584;2023-07-20T00:35:18;20.40;49.70
62809;DHT22;48848;39.002;-94.584;2023-07-20T00:37:44;20.40;49.60
62809;DHT22;48848;39.002;-94.584;2023-07-20T00:40:10;20.30;49.60
62809;DHT22;48848;39.002;-94.584;2023-07-20T00:42:36;20.30;49.70
62809;DHT22;48848;39.002;-94.584;2023-07-20T00:45:02;20.30;49.70
62809;DHT22;48848;39.002;-94.584;2023-07-20T00:47:27;20.30;49.70
62809;DHT22;48848;39.002;-94.584;2023-07-20T00:49:53;20.30;49.70
62809;DHT22;48848;39.002;-94.584;2023-07-20T00:52:22;20.30;49.60
62809;DHT22;48848;39.002;-94.584;2023-07-20T00:54:48;20.20;49.60
62809;DHT22;48848;39.002;-94.584;2023-07-20T00:57:15;20.20;49.60
62809;DHT22;48848;39.002;-94.584;2023-07-20T00:59:41;20.20;49.60
62809;DHT22;48848;39.002;-94.584;2023-07-20T01:02:07;20.20;49.50
62809;DHT22;48848;39.002;-94.584;2023-07-20T01:04:33;20.20;49.60
62809;DHT22;48848;39.002;-94.584;2023-07-20T01:07:08;20.20;49.60
62809;DHT22;48848;39.002;-94.584;2023-07-20T01:09:44;20.20;49.70
62809;DHT22;48848;39.002;-94.584;2023-07-20T01:12:13;20.20;49.80
62809;DHT22;48848;39.002;-94.584;2023-07-20T01:14:40;20.10;49.50
62809;DHT22;48848;39.002;-94.584;2023-07-20T01:17:05;20.10;49.90
62809;DHT22;48848;39.002;-94.584;2023-07-20T01:19:31;20.10;49.80
62809;DHT22;48848;39.002;-94.584;2023-07-20T01:22:15;20.10;50.00
62809;DHT22;48848;39.002;-94.584;2023-07-20T01:24:49;20.10;49.90
62809;DHT22;48848;39.002;-94.584;2023-07-20T01:30:08;20.00;50.30
62809;DHT22;48848;39.002;-94.584;2023-07-20T01:32:39;20.00;50.50
62809;DHT22;48848;39.002;-94.584;2023-07-20T01:35:06;20.00;51.00
62809;DHT22;48848;39.002;-94.584;2023-07-20T01:37:32;20.00;51.30
62809;DHT22;48848;39.002;-94.584;2023-07-20T01:39:59;20.00;51.70
62809;DHT22;48848;39.002;-94.584;2023-07-20T01:42:25;20.00;52.00
62809;DHT22;48848;39.002;-94.584;2023-07-20T01:44:51;20.10;52.30
62809;DHT22;48848;39.002;-94.584;2023-07-20T01:47:20;20.10;52.70
62809;DHT22;48848;39.002;-94.584;2023-07-20T01:49:46;20.10;52.80
62809;DHT22;48848;39.002;-94.584;2023-07-20T01:52:12;20.10;53.00
62809;DHT22;48848;39.002;-94.584;2023-07-20T01:54:38;20.00;53.00
62809;DHT22;48848;39.002;-94.584;2023-07-20T01:57:03;20.00;53.00
62809;DHT22;48848;39.002;-94.584;2023-07-20T01:59:29;20.00;52.80
62809;DHT22;48848;39.002;-94.584;2023-07-20T02:01:55;20.00;52.90
62809;DHT22;48848;39.002;-94.584;2023-07-20T02:04:21;20.00;52.60
62809;DHT22;48848;39.002;-94.584;2023-07-20T02:06:47;20.00;53.00
62809;DHT22;48848;39.002;-94.584;2023-07-20T02:09:13;20.00;53.20
62809;DHT22;48848;39.002;-94.584;2023-07-20T02:11:38;20.00;53.40
62809;DHT22;48848;39.002;-94.584;2023-07-20T02:14:04;20.00;53.10
62809;DHT22;48848;39.002;-94.584;2023-07-20T02:16:30;20.00;52.60
62809;DHT22;48848;39.002;-94.584;2023-07-20T02:18:56;20.00;52.20
62809;DHT22;48848;39.002;-94.584;2023-07-20T02:21:23;20.00;52.40
62809;DHT22;48848;39.002;-94.584;2023-07-20T02:23:49;20.00;52.70
62809;DHT22;48848;39.002;-94.584;2023-07-20T02:26:16;20.00;53.10
62809;DHT22;48848;39.002;-94.584;2023-07-20T02:28:41;20.00;53.40
62809;DHT22;48848;39.002;-94.584;2023-07-20T02:31:07;20.00;52.00
62809;DHT22;48848;39.002;-94.584;2023-07-20T02:33:33;20.00;51.60
62809;DHT22;48848;39.002;-94.584;2023-07-20T02:35:59;20.00;51.60
62809;DHT22;48848;39.002;-94.584;2023-07-20T02:38:25;20.00;51.50
62809;DHT22;48848;39.002;-94.584;2023-07-20T02:40:50;20.00;51.60
62809;DHT22;48848;39.002;-94.584;2023-07-20T02:43:17;20.00;51.60
62809;DHT22;48848;39.002;-94.584;2023-07-20T02:45:43;19.90;51.30
62809;DHT22;48848;39.002;-94.584;2023-07-20T02:48:09;19.90;51.20
62809;DHT22;48848;39.002;-94.584;2023-07-20T02:50:35;19.90;50.90
62809;DHT22;48848;39.002;-94.584;2023-07-20T02:53:01;19.90;50.60
62809;DHT22;48848;39.002;-94.584;2023-07-20T02:55:26;19.90;50.50
62809;DHT22;48848;39.002;-94.584;2023-07-20T02:57:52;19.90;50.50
62809;DHT22;48848;39.002;-94.584;2023-07-20T03:00:18;19.90;50.40
62809;DHT22;48848;39.002;-94.584;2023-07-20T03:02:45;19.90;50.60
62809;DHT22;48848;39.002;-94.584;2023-07-20T03:05:13;19.90;50.70
62809;DHT22;48848;39.002;-94.584;2023-07-20T03:07:39;19.90;50.60
62809;DHT22;48848;39.002;-94.584;2023-07-20T03:10:05;19.80;50.50
62809;DHT22;48848;39.002;-94.584;2023-07-20T03:12:35;19.90;50.50
62809;DHT22;48848;39.002;-94.584;2023-07-20T03:15:04;19.80;50.40
62809;DHT22;48848;39.002;-94.584;2023-07-20T03:17:30;19.90;50.30
62809;DHT22;48848;39.002;-94.584;2023-07-20T03:19:56;19.80;50.20
62809;DHT22;48848;39.002;-94.584;2023-07-20T03:22:21;19.80;50.20
62809;DHT22;48848;39.002;-94.584;2023-07-20T03:24:47;19.80;50.30
62809;DHT22;48848;39.002;-94.584;2023-07-20T03:27:13;19.80;50.30
62809;DHT22;48848;39.002;-94.584;2023-07-20T03:29:39;19.80;50.40
62809;DHT22;48848;39.002;-94.584;2023-07-20T03:32:05;19.80;50.20
62809;DHT22;48848;39.002;-94.584;2023-07-20T03:34:32;19.80;50.70
62809;DHT22;48848;39.002;-94.584;2023-07-20T03:36:57;19.80;50.70
62809;DHT22;48848;39.002;-94.584;2023-07-20T03:39:24;19.80;50.20
62809;DHT22;48848;39.002;-94.584;2023-07-20T03:41:50;19.80;50.00
62809;DHT22;48848;39.002;-94.584;2023-07-20T03:44:16;19.70;50.00
62809;DHT22;48848;39.002;-94.584;2023-07-20T03:46:42;19.80;50.00
62809;DHT22;48848;39.002;-94.584;2023-07-20T03:49:08;19.80;49.80
62809;DHT22;48848;39.002;-94.584;2023-07-20T03:51:34;19.70;49.70
62809;DHT22;48848;39.002;-94.584;2023-07-20T03:54:00;19.70;49.60
62809;DHT22;48848;39.002;-94.584;2023-07-20T03:56:26;19.70;49.70
62809;DHT22;48848;39.002;-94.584;2023-07-20T03:58:52;19.70;49.60
62809;DHT22;48848;39.002;-94.584;2023-07-20T04:01:18;19.70;49.60
62809;DHT22;48848;39.002;-94.584;2023-07-20T04:03:44;19.70;49.60
62809;DHT22;48848;39.002;-94.584;2023-07-20T04:06:10;19.60;49.60
62809;DHT22;48848;39.002;-94.584;2023-07-20T04:08:36;19.60;50.60
62809;DHT22;48848;39.002;-94.584;2023-07-20T04:11:02;19.70;51.70
62809;DHT22;48848;39.002;-94.584;2023-07-20T04:13:28;19.80;52.10
62809;DHT22;48848;39.002;-94.584;2023-07-20T04:15:54;20.00;52.70
62809;DHT22;48848;39.002;-94.584;2023-07-20T04:18:20;20.10;52.80
62809;DHT22;48848;39.002;-94.584;2023-07-20T04:20:46;20.10;53.00
62809;DHT22;48848;39.002;-94.584;2023-07-20T04:23:12;20.20;53.60
62809;DHT22;48848;39.002;-94.584;2023-07-20T04:25:39;20.30;53.80
62809;DHT22;48848;39.002;-94.584;2023-07-20T04:28:06;20.40;54.00
62809;DHT22;48848;39.002;-94.584;2023-07-20T04:30:34;20.40;53.50
62809;DHT22;48848;39.002;-94.584;2023-07-20T04:33:01;20.30;51.60
62809;DHT22;48848;39.002;-94.584;2023-07-20T04:35:46;20.30;50.90
62809;DHT22;48848;39.002;-94.584;2023-07-20T04:38:12;20.20;50.70
62809;DHT22;48848;39.002;-94.584;2023-07-20T04:40:38;20.20;50.50
62809;DHT22;48848;39.002;-94.584;2023-07-20T04:43:04;20.10;50.70
62809;DHT22;48848;39.002;-94.584;2023-07-20T04:45:29;20.10;50.50
62809;DHT22;48848;39.002;-94.584;2023-07-20T04:47:55;20.00;50.40
62809;DHT22;48848;39.002;-94.584;2023-07-20T04:50:22;20.00;50.40
62809;DHT22;48848;39.002;-94.584;2023-07-20T04:52:49;19.90;50.40
62809;DHT22;48848;39.002;-94.584;2023-07-20T04:55:15;19.90;50.50
62809;DHT22;48848;39.002;-94.584;2023-07-20T04:57:41;19.90;50.40
62809;DHT22;48848;39.002;-94.584;2023-07-20T05:00:07;19.90;50.40
62809;DHT22;48848;39.002;-94.584;2023-07-20T05:02:35;19.80;50.40
62809;DHT22;48848;39.002;-94.584;2023-07-20T05:05:02;19.80;50.30
62809;DHT22;48848;39.002;-94.584;2023-07-20T05:07:34;19.80;50.90
62809;DHT22;48848;39.002;-94.584;2023-07-20T05:10:00;19.70;50.10
62809;DHT22;48848;39.002;-94.584;2023-07-20T05:12:26;19.70;51.70
62809;DHT22;48848;39.002;-94.584;2023-07-20T05:14:52;19.80;52.80
62809;DHT22;48848;39.002;-94.584;2023-07-20T05:17:18;19.90;53.10
62809;DHT22;48848;39.002;-94.584;2023-07-20T05:19:43;20.00;53.10
62809;DHT22;48848;39.002;-94.584;2023-07-20T05:22:09;20.10;52.90
62809;DHT22;48848;39.002;-94.584;2023-07-20T05:24:36;20.20;52.80
62809;DHT22;48848;39.002;-94.584;2023-07-20T05:27:02;20.20;52.70
62809;DHT22;48848;39.002;-94.584;2023-07-20T05:29:28;20.30;53.00
62809;DHT22;48848;39.002;-94.584;2023-07-20T05:31:54;20.30;53.50
62809;DHT22;48848;39.002;-94.584;2023-07-20T05:34:20;20.40;53.90
62809;DHT22;48848;39.002;-94.584;2023-07-20T05:36:46;20.40;53.90
62809;DHT22;48848;39.002;-94.584;2023-07-20T05:39:12;20.50;54.00
62809;DHT22;48848;39.002;-94.584;2023-07-20T05:41:39;20.50;54.00
62809;DHT22;48848;39.002;-94.584;2023-07-20T05:44:05;20.50;53.90
62809;DHT22;48848;39.002;-94.584;2023-07-20T05:46:31;20.60;53.70
62809;DHT22;48848;39.002;-94.584;2023-07-20T05:48:57;20.70;53.60
62809;DHT22;48848;39.002;-94.584;2023-07-20T05:51:23;20.70;53.50
62809;DHT22;48848;39.002;-94.584;2023-07-20T05:53:49;20.80;53.60
62809;DHT22;48848;39.002;-94.584;2023-07-20T05:56:14;20.80;53.80
62809;DHT22;48848;39.002;-94.584;2023-07-20T05:58:40;20.80;54.40
62809;DHT22;48848;39.002;-94.584;2023-07-20T06:01:06;20.80;54.70
62809;DHT22;48848;39.002;-94.584;2023-07-20T06:03:32;20.90;55.10
62809;DHT22;48848;39.002;-94.584;2023-07-20T06:06:02;20.90;55.30
62809;DHT22;48848;39.002;-94.584;2023-07-20T06:08:29;20.90;55.20
62809;DHT22;48848;39.002;-94.584;2023-07-20T06:10:56;21.00;55.00
62809;DHT22;48848;39.002;-94.584;2023-07-20T06:13:21;21.00;54.70
62809;DHT22;48848;39.002;-94.584;2023-07-20T06:15:48;21.10;54.60
62809;DHT22;48848;39.002;-94.584;2023-07-20T06:18:14;21.10;54.70
62809;DHT22;48848;39.002;-94.584;2023-07-20T06:20:39;21.10;55.00
62809;DHT22;48848;39.002;-94.584;2023-07-20T06:23:05;21.10;55.90
62809;DHT22;48848;39.002;-94.584;2023-07-20T06:25:31;21.20;56.40
62809;DHT22;48848;39.002;-94.584;2023-07-20T06:27:57;21.20;56.60
62809;DHT22;48848;39.002;-94.584;2023-07-20T06:30:24;21.20;56.30
62809;DHT22;48848;39.002;-94.584;2023-07-20T06:32:49;21.20;53.20
62809;DHT22;48848;39.002;-94.584;2023-07-20T06:35:15;21.20;51.40
62809;DHT22;48848;39.002;-94.584;2023-07-20T06:37:42;21.10;51.50
62809;DHT22;48848;39.002;-94.584;2023-07-20T06:40:08;21.10;50.20
62809;DHT22;48848;39.002;-94.584;2023-07-20T06:42:34;21.00;50.00
62809;DHT22;48848;39.002;-94.584;2023-07-20T06:45:00;20.90;49.80
62809;DHT22;48848;39.002;-94.584;2023-07-20T06:47:26;20.80;49.70
62809;DHT22;48848;39.002;-94.584;2023-07-20T06:49:52;20.80;49.70
62809;DHT22;48848;39.002;-94.584;2023-07-20T06:52:18;20.70;49.70
62809;DHT22;48848;39.002;-94.584;2023-07-20T06:54:44;20.70;49.70
62809;DHT22;48848;39.002;-94.584;2023-07-20T06:57:10;20.60;49.60
62809;DHT22;48848;39.002;-94.584;2023-07-20T06:59:36;20.50;49.50
62809;DHT22;48848;39.002;-94.584;2023-07-20T07:02:01;20.50;49.20
62809;DHT22;48848;39.002;-94.584;2023-07-20T07:04:27;20.50;50.80
62809;DHT22;48848;39.002;-94.584;2023-07-20T07:06:53;20.50;52.20
62809;DHT22;48848;39.002;-94.584;2023-07-20T07:09:19;20.50;52.70
62809;DHT22;48848;39.002;-94.584;2023-07-20T07:11:46;20.60;52.90
62809;DHT22;48848;39.002;-94.584;2023-07-20T07:14:12;20.60;52.90
62809;DHT22;48848;39.002;-94.584;2023-07-20T07:16:38;20.70;53.00
62809;DHT22;48848;39.002;-94.584;2023-07-20T07:19:04;20.70;53.00
62809;DHT22;48848;39.002;-94.584;2023-07-20T07:21:31;20.80;53.10
62809;DHT22;48848;39.002;-94.584;2023-07-20T07:23:57;20.80;52.90
62809;DHT22;48848;39.002;-94.584;2023-07-20T07:26:24;20.90;52.90
62809;DHT22;48848;39.002;-94.584;2023-07-20T07:28:50;20.90;52.90
62809;DHT22;48848;39.002;-94.584;2023-07-20T07:31:16;21.00;53.30
62809;DHT22;48848;39.002;-94.584;2023-07-20T07:33:42;21.00;53.50
62809;DHT22;48848;39.002;-94.584;2023-07-20T07:36:08;21.00;53.70
62809;DHT22;48848;39.002;-94.584;2023-07-20T07:38:34;21.10;53.90
62809;DHT22;48848;39.002;-94.584;2023-07-20T07:40:59;21.10;54.00
62809;DHT22;48848;39.002;-94.584;2023-07-20T07:43:25;21.10;54.20
62809;DHT22;48848;39.002;-94.584;2023-07-20T07:45:53;21.10;54.00
62809;DHT22;48848;39.002;-94.584;2023-07-20T07:48:19;21.20;53.90
62809;DHT22;48848;39.002;-94.584;2023-07-20T07:50:46;21.20;53.80
62809;DHT22;48848;39.002;-94.584;2023-07-20T07:53:12;21.30;53.60
62809;DHT22;48848;39.002;-94.584;2023-07-20T07:55:38;21.30;53.70
62809;DHT22;48848;39.002;-94.584;2023-07-20T07:58:04;21.30;53.80
62809;DHT22;48848;39.002;-94.584;2023-07-20T08:00:30;21.30;54.40
62809;DHT22;48848;39.002;-94.584;2023-07-20T08:02:56;21.30;54.50
62809;DHT22;48848;39.002;-94.584;2023-07-20T08:05:21;21.30;54.90
62809;DHT22;48848;39.002;-94.584;2023-07-20T08:07:47;21.40;55.00
62809;DHT22;48848;39.002;-94.584;2023-07-20T08:10:13;21.40;54.90
62809;DHT22;48848;39.002;-94.584;2023-07-20T08:12:39;21.50;54.50
62809;DHT22;48848;39.002;-94.584;2023-07-20T08:15:05;21.50;54.30
62809;DHT22;48848;39.002;-94.584;2023-07-20T08:17:31;21.50;54.10
62809;DHT22;48848;39.002;-94.584;2023-07-20T08:19:57;21.50;54.10
62809;DHT22;48848;39.002;-94.584;2023-07-20T08:22:22;21.60;54.20
62809;DHT22;48848;39.002;-94.584;2023-07-20T08:24:48;21.60;55.00
62809;DHT22;48848;39.002;-94.584;2023-07-20T08:27:14;21.60;55.30
62809;DHT22;48848;39.002;-94.584;2023-07-20T08:29:40;21.60;55.70
62809;DHT22;48848;39.002;-94.584;2023-07-20T08:32:06;21.60;53.60
62809;DHT22;48848;39.002;-94.584;2023-07-20T08:34:32;21.60;51.10
62809;DHT22;48848;39.002;-94.584;2023-07-20T08:36:58;21.50;49.90
62809;DHT22;48848;39.002;-94.584;2023-07-20T08:39:24;21.40;49.50
62809;DHT22;48848;39.002;-94.584;2023-07-20T08:41:50;21.30;49.20
62809;DHT22;48848;39.002;-94.584;2023-07-20T08:44:17;21.30;49.10
62809;DHT22;48848;39.002;-94.584;2023-07-20T08:46:43;21.20;49.00
62809;DHT22;48848;39.002;-94.584;2023-07-20T08:49:09;21.10;48.90
62809;DHT22;48848;39.002;-94.584;2023-07-20T08:51:36;21.00;48.80
62809;DHT22;48848;39.002;-94.584;2023-07-20T08:54:03;21.00;48.80
62809;DHT22;48848;39.002;-94.584;2023-07-20T08:56:29;20.90;48.80
62809;DHT22;48848;39.002;-94.584;2023-07-20T08:58:56;20.80;48.80
62809;DHT22;48848;39.002;-94.584;2023-07-20T09:01:22;20.80;48.80
62809;DHT22;48848;39.002;-94.584;2023-07-20T09:03:49;20.70;48.70
62809;DHT22;48848;39.002;-94.584;2023-07-20T09:06:14;20.70;48.80
62809;DHT22;48848;39.002;-94.584;2023-07-20T09:08:41;20.60;48.70
62809;DHT22;48848;39.002;-94.584;2023-07-20T09:11:07;20.50;48.70
62809;DHT22;48848;39.002;-94.584;2023-07-20T09:13:34;20.50;48.80
62809;DHT22;48848;39.002;-94.584;2023-07-20T09:16:00;20.50;51.00
62809;DHT22;48848;39.002;-94.584;2023-07-20T09:18:27;20.50;51.60
62809;DHT22;48848;39.002;-94.584;2023-07-20T09:20:53;20.50;52.10
62809;DHT22;48848;39.002;-94.584;2023-07-20T09:23:29;20.60;52.20
62809;DHT22;48848;39.002;-94.584;2023-07-20T09:25:57;20.70;52.00
62809;DHT22;48848;39.002;-94.584;2023-07-20T09:28:23;20.70;52.10
62809;DHT22;48848;39.002;-94.584;2023-07-20T09:30:49;20.80;52.10
62809;DHT22;48848;39.002;-94.584;2023-07-20T09:33:18;20.80;52.10
62809;DHT22;48848;39.002;-94.584;2023-07-20T09:35:45;20.90;52.20
62809;DHT22;48848;39.002;-94.584;2023-07-20T09:38:11;20.90;52.30
62809;DHT22;48848;39.002;-94.584;2023-07-20T09:40:37;21.00;52.50
62809;DHT22;48848;39.002;-94.584;2023-07-20T09:43:06;21.00;52.40
62809;DHT22;48848;39.002;-94.584;2023-07-20T09:45:33;21.00;52.50
62809;DHT22;48848;39.002;-94.584;2023-07-20T09:48:05;21.00;52.50
62809;DHT22;48848;39.002;-94.584;2023-07-20T09:50:48;21.10;52.60
62809;DHT22;48848;39.002;-94.584;2023-07-20T09:53:15;21.10;52.70
62809;DHT22;48848;39.002;-94.584;2023-07-20T09:55:49;21.20;53.40
62809;DHT22;48848;39.002;-94.584;2023-07-20T09:58:15;21.20;52.90
62809;DHT22;48848;39.002;-94.584;2023-07-20T10:00:42;21.30;53.20
62809;DHT22;48848;39.002;-94.584;2023-07-20T10:03:22;21.30;53.60
62809;DHT22;48848;39.002;-94.584;2023-07-20T10:05:51;21.30;53.60
62809;DHT22;48848;39.002;-94.584;2023-07-20T10:08:17;21.30;53.70
62809;DHT22;48848;39.002;-94.584;2023-07-20T10:10:44;21.30;53.80
62809;DHT22;48848;39.002;-94.584;2023-07-20T10:13:32;21.30;53.60
62809;DHT22;48848;39.002;-94.584;2023-07-20T10:16:32;21.40;53.60
62809;DHT22;48848;39.002;-94.584;2023-07-20T10:18:51;21.40;53.40
62809;DHT22;48848;39.002;-94.584;2023-07-20T10:21:20;21.50;53.50
62809;DHT22;48848;39.002;-94.584;2023-07-20T10:23:48;21.50;53.50
62809;DHT22;48848;39.002;-94.584;2023-07-20T10:26:14;21.50;53.90
62809;DHT22;48848;39.002;-94.584;2023-07-20T10:28:40;21.50;54.30
62809;DHT22;48848;39.002;-94.584;2023-07-20T10:31:07;21.50;54.30
62809;DHT22;48848;39.002;-94.584;2023-07-20T10:33:34;21.60;54.50
62809;DHT22;48848;39.002;-94.584;2023-07-20T10:36:03;21.60;54.40
62809;DHT22;48848;39.002;-94.584;2023-07-20T10:43:44;21.60;54.00
62809;DHT22;48848;39.002;-94.584;2023-07-20T10:46:10;21.70;54.10
62809;DHT22;48848;39.002;-94.584;2023-07-20T10:48:39;21.70;54.10
62809;DHT22;48848;39.002;-94.584;2023-07-20T10:51:22;21.70;55.00
62809;DHT22;48848;39.002;-94.584;2023-07-20T10:53:49;21.70;54.90
62809;DHT22;48848;39.002;-94.584;2023-07-20T10:56:19;21.70;55.30
62809;DHT22;48848;39.002;-94.584;2023-07-20T10:58:45;21.70;55.50
62809;DHT22;48848;39.002;-94.584;2023-07-20T11:01:16;21.80;55.10
62809;DHT22;48848;39.002;-94.584;2023-07-20T11:03:42;21.70;51.30
62809;DHT22;48848;39.002;-94.584;2023-07-20T11:13:54;21.40;48.70
62809;DHT22;48848;39.002;-94.584;2023-07-20T11:16:20;21.40;48.80
62809;DHT22;48848;39.002;-94.584;2023-07-20T11:18:57;21.30;48.60
62809;DHT22;48848;39.002;-94.584;2023-07-20T11:21:23;21.20;48.60
62809;DHT22;48848;39.002;-94.584;2023-07-20T11:23:49;21.10;48.40
62809;DHT22;48848;39.002;-94.584;2023-07-20T11:26:14;21.00;48.30
62809;DHT22;48848;39.002;-94.584;2023-07-20T11:28:41;21.00;48.70
62809;DHT22;48848;39.002;-94.584;2023-07-20T11:31:07;20.90;48.50
62809;DHT22;48848;39.002;-94.584;2023-07-20T11:33:32;20.80;48.40
62809;DHT22;48848;39.002;-94.584;2023-07-20T11:35:58;20.80;48.50
62809;DHT22;48848;39.002;-94.584;2023-07-20T11:38:24;20.70;48.70
62809;DHT22;48848;39.002;-94.584;2023-07-20T11:40:50;20.70;51.20
62809;DHT22;48848;39.002;-94.584;2023-07-20T11:43:16;20.70;51.70
62809;DHT22;48848;39.002;-94.584;2023-07-20T11:45:43;20.80;52.10
62809;DHT22;48848;39.002;-94.584;2023-07-20T11:48:16;20.90;52.10
62809;DHT22;48848;39.002;-94.584;2023-07-20T11:50:42;20.90;52.20
62809;DHT22;48848;39.002;-94.584;2023-07-20T11:53:08;21.00;52.40
62809;DHT22;48848;39.002;-94.584;2023-07-20T11:55:34;21.00;52.40
62809;DHT22;48848;39.002;-94.584;2023-07-20T11:58:01;21.00;52.50
62809;DHT22;48848;39.002;-94.584;2023-07-20T12:00:27;21.10;52.70
62809;DHT22;48848;39.002;-94.584;2023-07-20T12:02:53;21.10;52.80
62809;DHT22;48848;39.002;-94.584;2023-07-20T12:05:19;21.10;52.90
62809;DHT22;48848;39.002;-94.584;2023-07-20T12:07:45;21.20;53.00
62809;DHT22;48848;39.002;-94.584;2023-07-20T12:10:13;21.30;53.20
62809;DHT22;48848;39.002;-94.584;2023-07-20T12:12:39;21.20;53.10
62809;DHT22;48848;39.002;-94.584;2023-07-20T12:15:26;21.30;53.20
62809;DHT22;48848;39.002;-94.584;2023-07-20T12:17:55;21.40;53.40
62809;DHT22;48848;39.002;-94.584;2023-07-20T12:20:25;21.30;53.60
62809;DHT22;48848;39.002;-94.584;2023-07-20T12:22:51;21.30;51.40
62809;DHT22;48848;39.002;-94.584;2023-07-20T12:25:17;21.30;50.00
62809;DHT22;48848;39.002;-94.584;2023-07-20T12:27:45;21.20;49.50
62809;DHT22;48848;39.002;-94.584;2023-07-20T12:30:12;21.10;49.20
62809;DHT22;48848;39.002;-94.584;2023-07-20T12:32:39;21.10;49.10
62809;DHT22;48848;39.002;-94.584;2023-07-20T12:35:05;21.00;48.80
62809;DHT22;48848;39.002;-94.584;2023-07-20T12:37:31;20.90;48.90
62809;DHT22;48848;39.002;-94.584;2023-07-20T12:39:58;20.90;48.80
62809;DHT22;48848;39.002;-94.584;2023-07-20T12:42:23;20.80;48.90
62809;DHT22;48848;39.002;-94.584;2023-07-20T12:44:49;20.80;48.80
62809;DHT22;48848;39.002;-94.584;2023-07-20T12:47:16;20.70;48.80
62809;DHT22;48848;39.002;-94.584;2023-07-20T12:49:42;20.60;48.90
62809;DHT22;48848;39.002;-94.584;2023-07-20T12:52:10;20.60;48.90
62809;DHT22;48848;39.002;-94.584;2023-07-20T12:54:36;20.50;48.90
62809;DHT22;48848;39.002;-94.584;2023-07-20T12:57:02;20.50;52.60
62809;DHT22;48848;39.002;-94.584;2023-07-20T12:59:29;20.50;52.80
62809;DHT22;48848;39.002;-94.584;2023-07-20T13:01:54;20.60;52.70
62809;DHT22;48848;39.002;-94.584;2023-07-20T13:04:20;20.70;52.80
62809;DHT22;48848;39.002;-94.584;2023-07-20T13:06:46;20.80;53.10
62809;DHT22;48848;39.002;-94.584;2023-07-20T13:09:12;20.90;54.00
62809;DHT22;48848;39.002;-94.584;2023-07-20T13:11:38;20.90;54.00
62809;DHT22;48848;39.002;-94.584;2023-07-20T13:14:03;21.00;54.10
62809;DHT22;48848;39.002;-94.584;2023-07-20T13:16:29;21.00;54.10
62809;DHT22;48848;39.002;-94.584;2023-07-20T13:18:55;21.10;54.20
62809;DHT22;48848;39.002;-94.584;2023-07-20T13:21:21;21.10;54.10
62809;DHT22;48848;39.002;-94.584;2023-07-20T13:23:48;21.20;54.10
62809;DHT22;48848;39.002;-94.584;2023-07-20T13:26:14;21.20;54.20
62809;DHT22;48848;39.002;-94.584;2023-07-20T13:28:41;21.30;55.30
62809;DHT22;48848;39.002;-94.584;2023-07-20T13:31:07;21.20;54.40
62809;DHT22;48848;39.002;-94.584;2023-07-20T13:33:35;21.30;54.50
62809;DHT22;48848;39.002;-94.584;2023-07-20T13:36:01;21.40;54.70
62809;DHT22;48848;39.002;-94.584;2023-07-20T13:38:27;21.40;55.30
62809;DHT22;48848;39.002;-94.584;2023-07-20T13:40:53;21.40;55.10
62809;DHT22;48848;39.002;-94.584;2023-07-20T13:43:19;21.40;55.50
62809;DHT22;48848;39.002;-94.584;2023-07-20T13:45:45;21.50;55.30
62809;DHT22;48848;39.002;-94.584;2023-07-20T13:48:10;21.50;55.30
62809;DHT22;48848;39.002;-94.584;2023-07-20T13:50:36;21.50;55.50
62809;DHT22;48848;39.002;-94.584;2023-07-20T13:53:02;21.60;55.60
62809;DHT22;48848;39.002;-94.584;2023-07-20T13:55:28;21.60;55.90
62809;DHT22;48848;39.002;-94.584;2023-07-20T13:57:56;21.60;56.00
62809;DHT22;48848;39.002;-94.584;2023-07-20T14:00:22;21.70;56.00
62809;DHT22;48848;39.002;-94.584;2023-07-20T14:02:48;21.70;56.00
62809;DHT22;48848;39.002;-94.584;2023-07-20T14:05:13;21.70;56.30
62809;DHT22;48848;39.002;-94.584;2023-07-20T14:07:41;21.70;58.80
62809;DHT22;48848;39.002;-94.584;2023-07-20T14:10:09;21.70;58.20
62809;DHT22;48848;39.002;-94.584;2023-07-20T14:12:34;21.80;57.00
62809;DHT22;48848;39.002;-94.584;2023-07-20T14:15:00;21.80;56.80
62809;DHT22;48848;39.002;-94.584;2023-07-20T14:17:26;21.80;56.50
62809;DHT22;48848;39.002;-94.584;2023-07-20T14:19:52;21.90;56.60
62809;DHT22;48848;39.002;-94.584;2023-07-20T14:22:18;21.90;56.90
62809;DHT22;48848;39.002;-94.584;2023-07-20T14:24:44;21.90;56.90
62809;DHT22;48848;39.002;-94.584;2023-07-20T14:27:10;22.00;57.00
62809;DHT22;48848;39.002;-94.584;2023-07-20T14:29:36;22.00;57.00
62809;DHT22;48848;39.002;-94.584;2023-07-20T14:32:02;22.00;57.30
62809;DHT22;48848;39.002;-94.584;2023-07-20T14:34:31;22.00;57.30
62809;DHT22;48848;39.002;-94.584;2023-07-20T14:36:59;22.00;57.30
62809;DHT22;48848;39.002;-94.584;2023-07-20T14:39:25;22.10;57.50
62809;DHT22;48848;39.002;-94.584;2023-07-20T14:41:50;22.00;57.50
62809;DHT22;48848;39.002;-94.584;2023-07-20T14:44:16;22.10;57.60
62809;DHT22;48848;39.002;-94.584;2023-07-20T14:46:43;22.10;57.80
62809;DHT22;48848;39.002;-94.584;2023-07-20T14:49:08;22.10;57.80
62809;DHT22;48848;39.002;-94.584;2023-07-20T14:51:36;22.10;57.80
62809;DHT22;48848;39.002;-94.584;2023-07-20T14:54:08;22.20;57.90
62809;DHT22;48848;39.002;-94.584;2023-07-20T14:56:34;22.20;57.90
62809;DHT22;48848;39.002;-94.584;2023-07-20T14:59:00;22.20;57.90
62809;DHT22;48848;39.002;-94.584;2023-07-20T15:01:26;22.20;57.80
62809;DHT22;48848;39.002;-94.584;2023-07-20T15:03:52;22.30;57.80
62809;DHT22;48848;39.002;-94.584;2023-07-20T15:06:19;22.30;57.90
62809;DHT22;48848;39.002;-94.584;2023-07-20T15:08:45;22.30;58.40
62809;DHT22;48848;39.002;-94.584;2023-07-20T15:11:11;22.30;58.60
62809;DHT22;48848;39.002;-94.584;2023-07-20T15:13:37;22.30;58.80
62809;DHT22;48848;39.002;-94.584;2023-07-20T15:16:02;22.30;59.20